This is the latest recevied weather packets stored in our database for station/object HB9MIR-13. If no packets are shown the sender has not sent any weather packets the latest 10 day(s).
| Time | Temp. | Humidity | Pressure | Rain* | Wind** | Luminosity | Snow |
|---|---|---|---|---|---|---|---|
| 1777890066 | 20° C | 46% | 1011.7 hPa | 0 mm | - | 303 W/m² | - |
| 1777889331 | 20.56° C | 42% | 1012.2 hPa | 0 mm | - | 597 W/m² | - |
| 1777888629 | 21.11° C | 49% | 1013 hPa | 0 mm | - | 806 W/m² | - |
| 1777887941 | 20° C | 48% | 1012.9 hPa | 0 mm | - | 728 W/m² | - |
| 1777887254 | 19.44° C | 52% | 1012.6 hPa | 0 mm | - | 489 W/m² | - |
| 1777886565 | 19.44° C | 54% | 1013.2 hPa | 0 mm | - | 711 W/m² | - |
| 1777885828 | 18.89° C | 54% | 1012.9 hPa | 0 mm | - | 439 W/m² | - |
| 1777885126 | 17.78° C | 59% | 1013.2 hPa | 0 mm | - | 743 W/m² | - |
| 1777884443 | 17.22° C | 62% | 1013.4 hPa | 0 mm | - | 668 W/m² | - |
| 1777883752 | 16.67° C | 63% | 1013.4 hPa | 0 mm | - | 615 W/m² | - |
| 1777883064 | 16.67° C | 65% | 1013.5 hPa | 0 mm | - | 473 W/m² | - |
| 1777882330 | 16.11° C | 64% | 1013.6 hPa | 0 mm | - | 472 W/m² | - |
| 1777881626 | 15° C | 69% | 1013.6 hPa | 0 mm | - | 411 W/m² | - |
| 1777880939 | 15° C | 68% | 1013.7 hPa | 0 mm | - | 370 W/m² | - |
| 1777880249 | 14.44° C | 67% | 1013.6 hPa | 0 mm | - | 264 W/m² | - |
| 1777879563 | 14.44° C | 68% | 1013.7 hPa | 0 mm | - | 220 W/m² | - |
| 1777878827 | 13.89° C | 69% | 1013.7 hPa | 0 mm | - | 193 W/m² | - |
| 1777878124 | 13.89° C | 68% | 1013.7 hPa | 0 mm | - | 160 W/m² | - |
| 1777877437 | 13.33° C | 72% | 1013.8 hPa | 0 mm | - | 142 W/m² | - |
| 1777876748 | 12.78° C | 73% | 1013.8 hPa | 0 mm | - | 117 W/m² | - |
| 1777876061 | 12.22° C | 74% | 1013.8 hPa | 0 mm | - | 110 W/m² | - |
| 1777875324 | 11.67° C | 75% | 1013.7 hPa | 0 mm | - | 71 W/m² | - |
| 1777874623 | 11.67° C | 77% | 1013.8 hPa | 0 mm | - | 59 W/m² | - |
| 1777873936 | 11.67° C | 78% | 1013.7 hPa | 0 mm | - | 52 W/m² | - |
| 1777873247 | 11.11° C | 82% | 1013.7 hPa | 0 mm | - | 52 W/m² | - |
* Rain latest hour (hover to see other rain measurements)
** Current wind speed in m/s (hover to see current wind gust speed)